Time;durP1;ratioP1;P1;durP2;ratioP2;P2;SDS_P1;SDS_P2;PMS_P1;PMS_P2;Temp;Humidity;BMP_temperature;BMP_pressure;BME280_temperature;BME280_humidity;BME280_pressure;Samples;Min_cycle;Max_cycle;Signal;HPM_P1;HPM_P2
2023/03/12 00:02:09;;;;;;;3.92;0.88;;;;;;;;;;8238994;28;20300;-76
2023/03/12 00:06:10;;;;;;;3.22;1.00;;;;;;;;;;8240750;28;20124;-76
2023/03/12 00:10:10;;;;;;;2.75;0.98;;;;;;;;;;8239917;28;20048;-76
2023/03/12 00:14:11;;;;;;;2.97;0.90;;;;;;;;;;8244679;28;20065;-75
2023/03/12 00:18:11;;;;;;;1.10;0.75;;;;;;;;;;8238440;28;21090;-76
2023/03/12 00:22:11;;;;;;;2.13;0.90;;;;;;;;;;8237490;28;20037;-76
2023/03/12 00:26:12;;;;;;;2.78;0.82;;;;;;;;;;8253985;28;20470;-76
2023/03/12 00:30:12;;;;;;;1.55;0.77;;;;;;;;;;8238132;28;20080;-76
2023/03/12 00:34:12;;;;;;;1.92;0.85;;;;;;;;;;8236320;28;20369;-76
2023/03/12 00:38:12;;;;;;;1.63;0.90;;;;;;;;;;8236793;28;20065;-76
2023/03/12 00:42:13;;;;;;;4.63;1.20;;;;;;;;;;8239545;28;20772;-76
2023/03/12 00:46:13;;;;;;;4.43;1.23;;;;;;;;;;8240452;28;20088;-76
2023/03/12 00:50:13;;;;;;;2.50;0.97;;;;;;;;;;8232345;28;20277;-76
2023/03/12 00:54:13;;;;;;;1.92;1.20;;;;;;;;;;8239453;28;20280;-76
2023/03/12 00:58:13;;;;;;;4.93;1.48;;;;;;;;;;8236995;28;20041;-75
2023/03/12 01:02:14;;;;;;;3.38;1.35;;;;;;;;;;8237628;28;20045;-76
2023/03/12 01:06:14;;;;;;;2.65;1.30;;;;;;;;;;8238988;28;20038;-76
2023/03/12 01:10:15;;;;;;;3.40;1.33;;;;;;;;;;8243126;28;20659;-76
2023/03/12 01:14:15;;;;;;;1.90;1.00;;;;;;;;;;8243974;28;20030;-76
2023/03/12 01:18:15;;;;;;;2.80;1.13;;;;;;;;;;8254786;28;20503;-76
2023/03/12 01:22:15;;;;;;;3.05;1.30;;;;;;;;;;8259067;28;20704;-76
2023/03/12 01:26:15;;;;;;;3.08;1.33;;;;;;;;;;8240578;28;20882;-76
2023/03/12 01:30:16;;;;;;;2.15;1.05;;;;;;;;;;8242487;28;20041;-76
2023/03/12 01:34:16;;;;;;;3.40;1.10;;;;;;;;;;8242322;28;20030;-76
2023/03/12 01:38:17;;;;;;;3.28;1.65;;;;;;;;;;8244506;28;20057;-76
2023/03/12 01:42:18;;;;;;;4.00;1.90;;;;;;;;;;8242254;28;21113;-76
2023/03/12 01:46:18;;;;;;;4.70;1.75;;;;;;;;;;8240414;28;20133;-76
2023/03/12 01:50:18;;;;;;;4.32;2.03;;;;;;;;;;8242464;28;20769;-76
2023/03/12 01:54:21;;;;;;;7.03;2.00;;;;;;;;;;8243477;28;20038;-76
2023/03/12 01:58:21;;;;;;;5.95;1.85;;;;;;;;;;8242852;28;20054;-76
2023/03/12 02:02:25;;;;;;;5.90;3.05;;;;;;;;;;8239815;28;20049;-76
2023/03/12 02:06:52;;;;;;;27.25;10.20;;;;;;;;;;8244626;28;20034;-76
2023/03/12 02:10:52;;;;;;;24.15;8.00;;;;;;;;;;8240073;28;20636;-75
2023/03/12 02:14:53;;;;;;;14.37;4.67;;;;;;;;;;8242900;28;20438;-76
2023/03/12 02:18:54;;;;;;;14.43;3.70;;;;;;;;;;8240095;28;20752;-76
2023/03/12 02:22:59;;;;;;;16.55;5.80;;;;;;;;;;8240244;28;20264;-76
2023/03/12 02:27:00;;;;;;;3.85;1.80;;;;;;;;;;8240808;28;20018;-76
2023/03/12 02:31:01;;;;;;;5.30;1.73;;;;;;;;;;8241020;28;20035;-76
2023/03/12 02:35:03;;;;;;;4.95;1.50;;;;;;;;;;8239328;28;20030;-76
2023/03/12 02:39:04;;;;;;;3.08;1.20;;;;;;;;;;8244871;28;20025;-76
2023/03/12 02:43:05;;;;;;;2.33;1.30;;;;;;;;;;8244758;28;20129;-76
2023/03/12 02:47:05;;;;;;;6.95;1.63;;;;;;;;;;8237916;28;20069;-75
2023/03/12 02:51:06;;;;;;;8.85;3.55;;;;;;;;;;8239138;28;20042;-75
2023/03/12 02:55:06;;;;;;;7.05;2.55;;;;;;;;;;8242594;28;20036;-75
2023/03/12 02:59:07;;;;;;;4.65;1.98;;;;;;;;;;8237192;28;20034;-75
2023/03/12 03:03:08;;;;;;;5.55;1.30;;;;;;;;;;8242748;28;20023;-75
2023/03/12 03:07:08;;;;;;;3.03;1.50;;;;;;;;;;8243635;28;20029;-76
2023/03/12 03:11:08;;;;;;;2.42;1.30;;;;;;;;;;8239674;28;20831;-76
2023/03/12 03:15:09;;;;;;;1.42;1.33;;;;;;;;;;8238755;28;20018;-77
2023/03/12 03:19:10;;;;;;;3.40;1.30;;;;;;;;;;8236724;28;20041;-76
2023/03/12 03:23:13;;;;;;;2.53;1.00;;;;;;;;;;8242372;28;20800;-76
2023/03/12 03:27:13;;;;;;;7.15;1.10;;;;;;;;;;8238765;28;20029;-76
2023/03/12 03:31:13;;;;;;;2.78;0.90;;;;;;;;;;8239858;28;20034;-76
2023/03/12 03:35:14;;;;;;;8.60;2.55;;;;;;;;;;8236620;28;20026;-77
2023/03/12 03:39:14;;;;;;;3.47;1.23;;;;;;;;;;8236642;28;20145;-77
2023/03/12 03:43:14;;;;;;;2.53;1.20;;;;;;;;;;8241437;28;20124;-77
2023/03/12 03:47:15;;;;;;;2.93;1.23;;;;;;;;;;8238645;28;20513;-77
2023/03/12 03:51:15;;;;;;;14.05;4.95;;;;;;;;;;8253786;28;20280;-77
2023/03/12 03:55:15;;;;;;;4.60;2.03;;;;;;;;;;8240814;28;20034;-77
2023/03/12 03:59:15;;;;;;;4.63;1.65;;;;;;;;;;8237452;28;20105;-76
2023/03/12 04:03:15;;;;;;;6.30;1.77;;;;;;;;;;8244903;28;20038;-76
2023/03/12 04:07:16;;;;;;;18.83;5.63;;;;;;;;;;8238973;28;20056;-76
2023/03/12 04:11:18;;;;;;;12.90;2.83;;;;;;;;;;8235263;28;20062;-77
2023/03/12 04:15:18;;;;;;;13.32;2.42;;;;;;;;;;8243477;28;20724;-76
2023/03/12 04:19:18;;;;;;;3.40;1.50;;;;;;;;;;8236730;28;20149;-77
2023/03/12 04:23:18;;;;;;;3.92;1.50;;;;;;;;;;8238607;28;20030;-77
2023/03/12 04:27:19;;;;;;;3.58;1.52;;;;;;;;;;8237481;28;20030;-76
2023/03/12 04:31:19;;;;;;;3.22;1.13;;;;;;;;;;8235899;28;20589;-76
2023/03/12 04:35:19;;;;;;;2.90;1.33;;;;;;;;;;8236847;28;20039;-76
2023/03/12 04:39:19;;;;;;;6.93;2.00;;;;;;;;;;8236669;28;20321;-76
2023/03/12 04:43:19;;;;;;;4.80;1.20;;;;;;;;;;8239748;28;21019;-76
2023/03/12 04:47:20;;;;;;;4.30;1.48;;;;;;;;;;8244657;28;20158;-76
2023/03/12 04:51:20;;;;;;;3.05;1.40;;;;;;;;;;8241339;28;20030;-76
2023/03/12 04:55:20;;;;;;;3.63;1.35;;;;;;;;;;8243039;28;20026;-76
2023/03/12 04:59:20;;;;;;;3.70;1.38;;;;;;;;;;8245449;28;20039;-75
2023/03/12 05:03:20;;;;;;;6.78;1.45;;;;;;;;;;8252322;28;20113;-77
2023/03/12 05:07:21;;;;;;;4.13;1.80;;;;;;;;;;8244243;28;20022;-76
2023/03/12 05:11:21;;;;;;;2.13;1.17;;;;;;;;;;8257602;28;20981;-76
2023/03/12 05:15:21;;;;;;;3.10;1.15;;;;;;;;;;8255011;28;20038;-77
2023/03/12 05:19:21;;;;;;;4.68;1.10;;;;;;;;;;8243547;28;20084;-76
2023/03/12 05:23:22;;;;;;;4.03;1.63;;;;;;;;;;8245495;28;20026;-76
2023/03/12 05:27:24;;;;;;;4.90;1.60;;;;;;;;;;8242698;28;20132;-77
2023/03/12 05:31:25;;;;;;;7.00;1.77;;;;;;;;;;8245122;28;20046;-76
2023/03/12 05:35:25;;;;;;;3.40;1.80;;;;;;;;;;8245454;28;20029;-76
2023/03/12 05:39:26;;;;;;;5.45;1.98;;;;;;;;;;8245846;28;20037;-76
2023/03/12 05:43:26;;;;;;;2.80;1.38;;;;;;;;;;8243454;28;20140;-76
2023/03/12 05:47:26;;;;;;;1.95;1.38;;;;;;;;;;8243301;28;20035;-76
2023/03/12 05:51:27;;;;;;;3.80;1.70;;;;;;;;;;8242074;28;20446;-76
2023/03/12 05:55:27;;;;;;;6.10;1.90;;;;;;;;;;8244796;28;20038;-76
2023/03/12 05:59:27;;;;;;;4.35;2.42;;;;;;;;;;8240470;28;20165;-76
2023/03/12 06:03:27;;;;;;;2.33;1.42;;;;;;;;;;8257895;28;20100;-76
2023/03/12 06:07:28;;;;;;;4.70;1.50;;;;;;;;;;8240891;28;20972;-75
2023/03/12 06:11:28;;;;;;;5.47;1.95;;;;;;;;;;8246343;28;20034;-78
2023/03/12 06:15:28;;;;;;;5.60;3.17;;;;;;;;;;8246422;28;20061;-78
2023/03/12 06:19:28;;;;;;;6.13;2.80;;;;;;;;;;8245373;28;20037;-77
2023/03/12 06:23:28;;;;;;;6.10;3.60;;;;;;;;;;8246772;28;20030;-78
2023/03/12 06:27:28;;;;;;;7.18;2.80;;;;;;;;;;8245423;28;20038;-78
2023/03/12 06:31:29;;;;;;;14.48;4.75;;;;;;;;;;8245744;28;20030;-77
2023/03/12 06:35:29;;;;;;;20.00;6.67;;;;;;;;;;8241604;28;20034;-77
2023/03/12 06:39:29;;;;;;;21.85;7.38;;;;;;;;;;8242686;28;20288;-78
2023/03/12 06:43:30;;;;;;;13.88;6.45;;;;;;;;;;8243700;28;20038;-77
2023/03/12 06:47:30;;;;;;;23.95;6.68;;;;;;;;;;8242433;28;20153;-77
2023/03/12 06:51:31;;;;;;;31.13;8.02;;;;;;;;;;8242559;28;20125;-77
2023/03/12 06:55:31;;;;;;;83.72;8.30;;;;;;;;;;8251898;28;20030;-77
2023/03/12 06:59:31;;;;;;;33.00;8.15;;;;;;;;;;8242714;28;20022;-77
2023/03/12 07:03:31;;;;;;;164.63;9.63;;;;;;;;;;8243373;28;20034;-77
2023/03/12 07:07:32;;;;;;;75.97;9.07;;;;;;;;;;8241710;28;20529;-77
2023/03/12 07:11:32;;;;;;;271.15;12.40;;;;;;;;;;8243614;28;20280;-77
2023/03/12 07:15:33;;;;;;;170.38;9.70;;;;;;;;;;8256409;28;20088;-77
2023/03/12 07:19:33;;;;;;;124.82;8.30;;;;;;;;;;8239573;28;20577;-77
2023/03/12 07:23:33;;;;;;;11.98;5.78;;;;;;;;;;8238728;28;20018;-77
2023/03/12 07:27:33;;;;;;;14.27;6.50;;;;;;;;;;8236674;28;20056;-76
2023/03/12 07:31:33;;;;;;;11.25;5.30;;;;;;;;;;8240031;28;20993;-76
2023/03/12 07:35:34;;;;;;;5.78;4.00;;;;;;;;;;8243045;28;20049;-77
2023/03/12 07:39:35;;;;;;;14.05;6.00;;;;;;;;;;8245377;28;21028;-77
2023/03/12 07:43:35;;;;;;;5.25;4.00;;;;;;;;;;8240644;28;20087;-77
2023/03/12 07:47:35;;;;;;;6.70;4.38;;;;;;;;;;8242600;28;20026;-76
2023/03/12 07:51:35;;;;;;;29.40;4.40;;;;;;;;;;8237544;28;20702;-76
2023/03/12 07:55:35;;;;;;;7.55;4.60;;;;;;;;;;8239756;28;20029;-77
2023/03/12 07:59:35;;;;;;;25.75;6.35;;;;;;;;;;8243618;28;20030;-77
2023/03/12 08:03:37;;;;;;;86.72;9.15;;;;;;;;;;8239987;28;20041;-77
2023/03/12 08:07:37;;;;;;;140.55;10.55;;;;;;;;;;8237317;28;20017;-77
2023/03/12 08:11:37;;;;;;;80.00;8.33;;;;;;;;;;8237986;28;20037;-77
2023/03/12 08:15:38;;;;;;;66.25;7.82;;;;;;;;;;8241188;28;20312;-77
2023/03/12 08:19:38;;;;;;;186.82;11.55;;;;;;;;;;8241524;28;20509;-78
2023/03/12 08:23:38;;;;;;;18.40;7.03;;;;;;;;;;8250010;28;20552;-79
2023/03/12 08:27:38;;;;;;;27.92;6.72;;;;;;;;;;8245757;28;20053;-78
2023/03/12 08:31:38;;;;;;;19.83;6.93;;;;;;;;;;8245022;28;20145;-77
2023/03/12 08:35:39;;;;;;;29.63;7.05;;;;;;;;;;8244509;28;20018;-78
2023/03/12 08:39:39;;;;;;;30.00;7.35;;;;;;;;;;8239597;28;20029;-78
2023/03/12 08:43:39;;;;;;;23.48;8.90;;;;;;;;;;8245194;28;20675;-78
2023/03/12 08:47:40;;;;;;;17.77;7.43;;;;;;;;;;8244457;28;20038;-78
2023/03/12 08:51:40;;;;;;;10.23;6.78;;;;;;;;;;8259460;28;20048;-77
2023/03/12 08:55:40;;;;;;;11.27;7.68;;;;;;;;;;8243041;28;20038;-77
2023/03/12 08:59:41;;;;;;;18.15;7.70;;;;;;;;;;8245110;28;20101;-78
2023/03/12 09:03:41;;;;;;;12.82;7.60;;;;;;;;;;8244399;28;20109;-77
2023/03/12 09:07:41;;;;;;;15.97;7.83;;;;;;;;;;8249067;28;20037;-79
2023/03/12 09:11:41;;;;;;;9.43;6.90;;;;;;;;;;8245348;28;20323;-77
2023/03/12 09:15:41;;;;;;;11.32;6.55;;;;;;;;;;8243488;28;20065;-77
2023/03/12 09:19:42;;;;;;;12.80;7.78;;;;;;;;;;8241604;28;20482;-77
2023/03/12 09:23:42;;;;;;;19.10;9.45;;;;;;;;;;8244861;28;20022;-78
2023/03/12 09:27:43;;;;;;;25.75;10.88;;;;;;;;;;8245833;28;20032;-77
2023/03/12 09:31:44;;;;;;;20.80;8.63;;;;;;;;;;8242108;28;20399;-77
2023/03/12 09:35:44;;;;;;;12.52;7.35;;;;;;;;;;8242740;28;20025;-77
2023/03/12 09:39:44;;;;;;;6.32;4.88;;;;;;;;;;8241891;28;20028;-78
2023/03/12 09:43:47;;;;;;;6.68;3.95;;;;;;;;;;8248768;28;20109;-77
2023/03/12 09:48:10;;;;;;;3.42;2.72;;;;;;;;;;8249332;28;20564;-78
2023/03/12 09:52:16;;;;;;;4.15;3.28;;;;;;;;;;8244741;28;20053;-78
2023/03/12 09:56:18;;;;;;;3.33;3.00;;;;;;;;;;8246385;28;20052;-78
2023/03/12 10:00:22;;;;;;;4.13;2.90;;;;;;;;;;8242440;28;20022;-78
2023/03/12 10:04:27;;;;;;;2.80;2.60;;;;;;;;;;8243171;28;20054;-77
2023/03/12 10:08:46;;;;;;;2.90;2.60;;;;;;;;;;8243950;28;20026;-78
2023/03/12 10:13:12;;;;;;;3.90;2.50;;;;;;;;;;8243709;28;20048;-78
2023/03/12 10:17:16;;;;;;;2.95;2.72;;;;;;;;;;8232817;28;20040;-78
2023/03/12 10:21:33;;;;;;;2.65;2.40;;;;;;;;;;8244123;28;20756;-78
2023/03/12 10:25:45;;;;;;;3.42;3.03;;;;;;;;;;8243887;28;20573;-78
2023/03/12 10:29:47;;;;;;;3.10;2.65;;;;;;;;;;8245921;28;20801;-78
2023/03/12 10:33:53;;;;;;;4.75;3.88;;;;;;;;;;8254824;28;20044;-79
2023/03/12 10:37:56;;;;;;;3.45;2.45;;;;;;;;;;8243764;28;20065;-79
2023/03/12 10:41:58;;;;;;;3.03;2.55;;;;;;;;;;8243612;28;20034;-78
2023/03/12 10:46:21;;;;;;;3.22;2.92;;;;;;;;;;8243240;28;20030;-79
2023/03/12 10:50:26;;;;;;;2.60;2.40;;;;;;;;;;8242552;28;20026;-78
2023/03/12 10:54:28;;;;;;;2.78;2.42;;;;;;;;;;8248762;28;20147;-78
2023/03/12 10:58:33;;;;;;;2.88;2.47;;;;;;;;;;8241857;28;20030;-78
2023/03/12 11:02:44;;;;;;;3.55;2.88;;;;;;;;;;8243322;28;20107;-78
2023/03/12 11:07:03;;;;;;;6.25;3.53;;;;;;;;;;8244220;28;20030;-78
2023/03/12 11:11:04;;;;;;;5.88;3.17;;;;;;;;;;8257145;28;20056;-78
2023/03/12 11:15:24;;;;;;;7.03;3.80;;;;;;;;;;8254541;28;20014;-78
2023/03/12 11:19:26;;;;;;;8.55;4.03;;;;;;;;;;8257490;28;20821;-78
2023/03/12 11:23:28;;;;;;;7.40;3.72;;;;;;;;;;8242906;28;20057;-78
2023/03/12 11:27:42;;;;;;;10.60;3.55;;;;;;;;;;8255773;28;21022;-79
2023/03/12 11:31:49;;;;;;;11.15;4.60;;;;;;;;;;8244015;28;20050;-78
2023/03/12 11:36:08;;;;;;;9.18;4.35;;;;;;;;;;8243768;28;20032;-79
2023/03/12 11:40:17;;;;;;;7.22;3.95;;;;;;;;;;8239758;28;20026;-79
2023/03/12 11:44:25;;;;;;;7.45;3.25;;;;;;;;;;8244242;28;20034;-79
2023/03/12 11:48:25;;;;;;;6.55;3.45;;;;;;;;;;8242059;28;20034;-80
2023/03/12 11:52:28;;;;;;;14.68;3.78;;;;;;;;;;8242794;28;20022;-79
2023/03/12 11:56:31;;;;;;;13.73;4.05;;;;;;;;;;8255397;28;20037;-79
2023/03/12 12:00:36;;;;;;;11.27;3.28;;;;;;;;;;8241353;28;21115;-80
2023/03/12 12:04:55;;;;;;;9.00;3.38;;;;;;;;;;8247821;28;20830;-80
2023/03/12 12:09:02;;;;;;;10.45;3.22;;;;;;;;;;8245277;28;20033;-79
2023/03/12 12:13:13;;;;;;;12.52;3.47;;;;;;;;;;8241734;28;20026;-78
2023/03/12 12:17:23;;;;;;;10.10;3.45;;;;;;;;;;8239569;28;20038;-79
2023/03/12 12:21:55;;;;;;;9.00;3.40;;;;;;;;;;8238903;28;20030;-79
2023/03/12 12:26:01;;;;;;;12.05;3.25;;;;;;;;;;8228399;28;20102;-78
2023/03/12 12:30:20;;;;;;;10.98;3.88;;;;;;;;;;8238938;28;20025;-79
2023/03/12 12:34:23;;;;;;;13.85;3.28;;;;;;;;;;8239692;28;20048;-79
2023/03/12 12:38:29;;;;;;;14.40;3.75;;;;;;;;;;8239065;28;20034;-78
2023/03/12 12:42:31;;;;;;;12.32;3.28;;;;;;;;;;8240840;28;20038;-79
2023/03/12 12:46:34;;;;;;;11.32;3.42;;;;;;;;;;8238693;28;20121;-78
2023/03/12 12:50:36;;;;;;;13.00;3.03;;;;;;;;;;8238711;28;20104;-80
2023/03/12 12:54:50;;;;;;;12.60;2.97;;;;;;;;;;8238866;28;20054;-79
2023/03/12 12:58:53;;;;;;;14.70;3.28;;;;;;;;;;8238783;28;20030;-78
2023/03/12 13:02:54;;;;;;;10.00;2.70;;;;;;;;;;8253315;28;20049;-78
2023/03/12 13:07:00;;;;;;;11.50;3.42;;;;;;;;;;8245912;28;20041;-78
2023/03/12 13:11:24;;;;;;;12.18;3.22;;;;;;;;;;8246156;28;20041;-79
2023/03/12 13:15:27;;;;;;;11.73;3.35;;;;;;;;;;8242260;28;20049;-79
2023/03/12 13:19:27;;;;;;;11.02;3.03;;;;;;;;;;8242966;28;21774;-78
2023/03/12 13:23:54;;;;;;;11.48;3.10;;;;;;;;;;8248286;28;20069;-78
2023/03/12 13:27:59;;;;;;;13.52;2.85;;;;;;;;;;8227045;28;20025;-79
2023/03/12 13:31:59;;;;;;;15.05;3.30;;;;;;;;;;8243009;28;20033;-79
2023/03/12 13:36:02;;;;;;;16.27;3.53;;;;;;;;;;8244947;28;20670;-79
2023/03/12 13:40:22;;;;;;;12.73;3.30;;;;;;;;;;8243102;28;20498;-79
2023/03/12 13:44:26;;;;;;;12.90;3.05;;;;;;;;;;8247446;28;20032;-79
2023/03/12 13:48:26;;;;;;;14.83;3.30;;;;;;;;;;8241366;28;20679;-79
2023/03/12 13:52:32;;;;;;;15.32;4.10;;;;;;;;;;8251024;28;20435;-78
2023/03/12 13:56:32;;;;;;;14.98;3.83;;;;;;;;;;8241814;28;20178;-79
2023/03/12 14:00:40;;;;;;;14.20;3.55;;;;;;;;;;8242078;28;20073;-79
2023/03/12 14:04:41;;;;;;;14.00;3.90;;;;;;;;;;8245306;28;20954;-79
2023/03/12 14:08:44;;;;;;;18.58;4.30;;;;;;;;;;8241855;28;20618;-80
2023/03/12 14:13:06;;;;;;;14.13;3.80;;;;;;;;;;8244737;28;20022;-79
2023/03/12 14:17:14;;;;;;;14.10;3.53;;;;;;;;;;8243573;28;20065;-79
2023/03/12 14:21:15;;;;;;;14.52;3.38;;;;;;;;;;8246933;28;20022;-79
2023/03/12 14:25:20;;;;;;;13.07;3.25;;;;;;;;;;8254174;28;20711;-79
2023/03/12 14:29:30;;;;;;;12.73;3.25;;;;;;;;;;8247535;28;20109;-79
2023/03/12 14:33:33;;;;;;;15.77;3.80;;;;;;;;;;8243427;28;22660;-79
2023/03/12 14:37:39;;;;;;;19.58;3.63;;;;;;;;;;8243653;28;20018;-79
2023/03/12 14:41:44;;;;;;;18.85;3.65;;;;;;;;;;8243398;28;20034;-78
2023/03/12 14:45:44;;;;;;;12.10;3.20;;;;;;;;;;8242346;28;20041;-79
2023/03/12 14:49:45;;;;;;;15.57;3.50;;;;;;;;;;8255660;28;20022;-79
2023/03/12 14:53:45;;;;;;;14.57;3.00;;;;;;;;;;8240551;28;20844;-79
2023/03/12 14:57:46;;;;;;;14.33;3.27;;;;;;;;;;8241878;28;20033;-79
2023/03/12 15:01:46;;;;;;;14.00;3.47;;;;;;;;;;8238333;28;20107;-80
2023/03/12 15:05:47;;;;;;;16.15;3.55;;;;;;;;;;8246885;28;20053;-79
2023/03/12 15:09:51;;;;;;;17.77;3.47;;;;;;;;;;8242073;28;20030;-80
2023/03/12 15:13:51;;;;;;;;;;;;;;;;;;8244947;28;20029;-79
2023/03/12 15:17:51;;;;;;;23.40;5.90;;;;;;;;;;8238976;28;19921;-78
2023/03/12 15:21:51;;;;;;;16.50;3.55;;;;;;;;;;8257843;28;21007;-79
2023/03/12 15:26:10;;;;;;;13.33;2.93;;;;;;;;;;8241273;28;20026;-79
2023/03/12 15:30:21;;;;;;;16.27;3.22;;;;;;;;;;8256585;28;20276;-79
2023/03/12 15:34:27;;;;;;;14.55;3.45;;;;;;;;;;8241315;28;20026;-79
2023/03/12 15:38:27;;;;;;;12.85;2.92;;;;;;;;;;8240502;28;20047;-79
2023/03/12 15:42:28;;;;;;;15.02;3.67;;;;;;;;;;8246820;28;20181;-79
2023/03/12 15:46:28;;;;;;;16.23;3.05;;;;;;;;;;8243278;28;20034;-79
2023/03/12 15:50:29;;;;;;;12.05;2.90;;;;;;;;;;8241819;28;20037;-79
2023/03/12 15:54:30;;;;;;;15.60;2.75;;;;;;;;;;8241111;28;20043;-79
2023/03/12 15:58:30;;;;;;;13.68;3.25;;;;;;;;;;8245936;28;20036;-78
2023/03/12 16:02:35;;;;;;;13.63;3.07;;;;;;;;;;8253346;28;20530;-78
2023/03/12 16:06:35;;;;;;;20.00;3.50;;;;;;;;;;8241468;28;20387;-78
2023/03/12 16:10:37;;;;;;;14.93;3.40;;;;;;;;;;8238398;28;20110;-78
2023/03/12 16:14:38;;;;;;;16.02;3.00;;;;;;;;;;8239713;28;20032;-79
2023/03/12 16:18:39;;;;;;;13.85;3.30;;;;;;;;;;8237694;28;20030;-78
2023/03/12 16:22:40;;;;;;;13.70;3.03;;;;;;;;;;8246519;28;20028;-79
2023/03/12 16:26:51;;;;;;;17.67;3.00;;;;;;;;;;8244058;28;20026;-78
2023/03/12 16:30:52;;;;;;;12.48;2.50;;;;;;;;;;8238478;28;20026;-78
2023/03/12 16:34:52;;;;;;;12.80;3.05;;;;;;;;;;8240173;28;20028;-79
2023/03/12 16:38:52;;;;;;;11.00;2.50;;;;;;;;;;8238638;28;20068;-79
2023/03/12 16:42:53;;;;;;;15.02;3.67;;;;;;;;;;8245529;28;20037;-78
2023/03/12 16:46:53;;;;;;;15.52;3.40;;;;;;;;;;8245164;28;20031;-79
2023/03/12 16:50:54;;;;;;;10.75;2.90;;;;;;;;;;8244081;28;20077;-79
2023/03/12 16:54:54;;;;;;;15.20;3.05;;;;;;;;;;8243941;28;20042;-79
2023/03/12 16:58:56;;;;;;;20.02;3.63;;;;;;;;;;8244857;28;20556;-78
2023/03/12 17:02:57;;;;;;;16.73;3.22;;;;;;;;;;8239191;28;20636;-79
2023/03/12 17:06:57;;;;;;;16.33;3.05;;;;;;;;;;8249582;28;20148;-78
2023/03/12 17:10:58;;;;;;;14.05;3.17;;;;;;;;;;8244022;28;20050;-77
2023/03/12 17:14:59;;;;;;;11.82;2.70;;;;;;;;;;8243332;28;20057;-79
2023/03/12 17:18:59;;;;;;;15.18;3.10;;;;;;;;;;8241603;28;20042;-79
2023/03/12 17:22:59;;;;;;;19.02;3.22;;;;;;;;;;8240387;28;20026;-79
2023/03/12 17:26:59;;;;;;;19.20;4.00;;;;;;;;;;8237712;28;20026;-78
2023/03/12 17:31:00;;;;;;;16.05;2.70;;;;;;;;;;8241537;28;20069;-79
2023/03/12 17:35:02;;;;;;;20.92;3.53;;;;;;;;;;8242251;28;20022;-80
2023/03/12 17:39:02;;;;;;;12.98;2.80;;;;;;;;;;8255027;28;20342;-80
2023/03/12 17:43:02;;;;;;;16.60;3.83;;;;;;;;;;8246582;28;20899;-79
2023/03/12 17:47:02;;;;;;;15.13;3.30;;;;;;;;;;8239251;28;20553;-78
2023/03/12 17:51:07;;;;;;;14.07;3.30;;;;;;;;;;8237629;28;20022;-78
2023/03/12 17:55:07;;;;;;;15.35;3.85;;;;;;;;;;8245743;28;20048;-78
2023/03/12 17:59:08;;;;;;;10.52;3.17;;;;;;;;;;8244747;28;20569;-77
2023/03/12 18:03:08;;;;;;;14.70;3.20;;;;;;;;;;8236571;28;20062;-78
2023/03/12 18:07:08;;;;;;;14.13;2.92;;;;;;;;;;8238691;28;20351;-79
2023/03/12 18:11:08;;;;;;;14.48;2.88;;;;;;;;;;8237588;28;20041;-77
2023/03/12 18:15:11;;;;;;;16.30;3.30;;;;;;;;;;8239106;28;20133;-76
2023/03/12 18:19:12;;;;;;;19.33;3.17;;;;;;;;;;8238607;28;20434;-77
2023/03/12 18:23:12;;;;;;;12.90;2.93;;;;;;;;;;8237071;28;20052;-76
2023/03/12 18:27:12;;;;;;;16.05;3.45;;;;;;;;;;8254529;28;20026;-77
2023/03/12 18:31:12;;;;;;;13.23;2.75;;;;;;;;;;8231808;28;20034;-77
2023/03/12 18:35:13;;;;;;;15.55;2.85;;;;;;;;;;8236248;28;20030;-76
2023/03/12 18:39:13;;;;;;;17.67;3.00;;;;;;;;;;8235250;28;20029;-75
2023/03/12 18:43:13;;;;;;;13.77;2.42;;;;;;;;;;8237680;28;20030;-75
2023/03/12 18:47:13;;;;;;;15.18;3.05;;;;;;;;;;8242094;28;20038;-74
2023/03/12 18:51:13;;;;;;;14.60;3.00;;;;;;;;;;8253864;28;20077;-75
2023/03/12 18:55:14;;;;;;;11.43;2.85;;;;;;;;;;8239003;28;20025;-74
2023/03/12 18:59:14;;;;;;;12.15;2.22;;;;;;;;;;8235860;28;20034;-74
2023/03/12 19:03:15;;;;;;;15.30;2.78;;;;;;;;;;8233260;28;20046;-75
2023/03/12 19:07:16;;;;;;;14.40;3.17;;;;;;;;;;8237675;28;20041;-74
2023/03/12 19:11:17;;;;;;;15.48;3.70;;;;;;;;;;8236877;28;20057;-74
2023/03/12 19:15:17;;;;;;;13.60;2.80;;;;;;;;;;8231792;28;20030;-74
2023/03/12 19:19:17;;;;;;;16.83;3.00;;;;;;;;;;8238390;28;20671;-74
2023/03/12 19:23:17;;;;;;;14.00;2.75;;;;;;;;;;8232340;28;20082;-75
2023/03/12 19:27:18;;;;;;;14.35;3.15;;;;;;;;;;8232327;28;20022;-75
2023/03/12 19:31:18;;;;;;;14.77;3.07;;;;;;;;;;8235224;28;20121;-75
2023/03/12 19:35:18;;;;;;;15.70;2.92;;;;;;;;;;8232106;28;20307;-75
2023/03/12 19:39:18;;;;;;;13.95;2.80;;;;;;;;;;8230072;28;20026;-75
2023/03/12 19:43:19;;;;;;;14.95;3.22;;;;;;;;;;8234273;28;20036;-75
2023/03/12 19:47:20;;;;;;;14.77;3.05;;;;;;;;;;8233125;28;20875;-74
2023/03/12 19:51:20;;;;;;;13.98;2.72;;;;;;;;;;8246251;28;20033;-75
2023/03/12 19:55:21;;;;;;;11.93;2.60;;;;;;;;;;8229956;28;20495;-74
2023/03/12 19:59:21;;;;;;;14.50;3.45;;;;;;;;;;8230806;28;20626;-75
2023/03/12 20:03:21;;;;;;;15.73;2.85;;;;;;;;;;8233875;28;20041;-76
2023/03/12 20:07:22;;;;;;;13.50;3.05;;;;;;;;;;8234986;28;20070;-75
2023/03/12 20:11:22;;;;;;;16.30;3.10;;;;;;;;;;8245494;28;20046;-75
2023/03/12 20:15:22;;;;;;;15.90;2.90;;;;;;;;;;8248115;28;20124;-76
2023/03/12 20:19:23;;;;;;;12.93;2.88;;;;;;;;;;8236012;28;20022;-77
2023/03/12 20:23:23;;;;;;;15.88;2.92;;;;;;;;;;8236271;28;20093;-76
2023/03/12 20:27:24;;;;;;;12.88;2.55;;;;;;;;;;8231715;28;20049;-76
2023/03/12 20:31:24;;;;;;;19.73;3.80;;;;;;;;;;8243293;28;20044;-76
2023/03/12 20:35:24;;;;;;;14.05;2.60;;;;;;;;;;8236047;28;20117;-76
2023/03/12 20:39:25;;;;;;;15.70;2.85;;;;;;;;;;8236023;28;20029;-77
2023/03/12 20:43:25;;;;;;;16.92;3.05;;;;;;;;;;8236998;28;20033;-76
2023/03/12 20:47:25;;;;;;;14.25;2.63;;;;;;;;;;8234394;28;20398;-77
2023/03/12 20:51:25;;;;;;;19.65;3.50;;;;;;;;;;8234518;28;20451;-77
2023/03/12 20:55:26;;;;;;;14.18;2.92;;;;;;;;;;8234998;28;20073;-76
2023/03/12 20:59:26;;;;;;;16.38;2.63;;;;;;;;;;8233453;28;20026;-76
2023/03/12 21:03:26;;;;;;;15.13;3.10;;;;;;;;;;8233831;28;20111;-77
2023/03/12 21:07:26;;;;;;;13.93;3.07;;;;;;;;;;8234103;28;20037;-76
2023/03/12 21:11:27;;;;;;;14.23;3.00;;;;;;;;;;8234630;28;20076;-75
2023/03/12 21:15:27;;;;;;;14.20;2.97;;;;;;;;;;8247787;28;20042;-76
2023/03/12 21:19:28;;;;;;;10.05;2.53;;;;;;;;;;8231440;28;20026;-76
2023/03/12 21:23:28;;;;;;;11.43;2.30;;;;;;;;;;8249033;28;20058;-76
2023/03/12 21:27:29;;;;;;;13.93;2.58;;;;;;;;;;8234790;28;20036;-76
2023/03/12 21:31:29;;;;;;;15.25;2.92;;;;;;;;;;8238806;28;20499;-77
2023/03/12 21:35:29;;;;;;;13.98;3.42;;;;;;;;;;8240571;28;20022;-76
2023/03/12 21:39:29;;;;;;;15.07;3.03;;;;;;;;;;8244236;28;20061;-76
2023/03/12 21:43:29;;;;;;;18.33;3.20;;;;;;;;;;8238427;28;20029;-76
2023/03/12 21:47:30;;;;;;;13.68;2.78;;;;;;;;;;8250786;28;20036;-76
2023/03/12 21:51:30;;;;;;;13.95;2.55;;;;;;;;;;8242150;28;20706;-76
2023/03/12 21:55:30;;;;;;;15.77;2.65;;;;;;;;;;8244924;28;20768;-76
2023/03/12 21:59:30;;;;;;;11.88;2.58;;;;;;;;;;8242940;28;20482;-76
2023/03/12 22:03:31;;;;;;;10.82;2.55;;;;;;;;;;8241316;28;20030;-76
2023/03/12 22:07:31;;;;;;;12.93;2.78;;;;;;;;;;8243603;28;20121;-76
2023/03/12 22:11:31;;;;;;;12.73;2.75;;;;;;;;;;8244603;28;20048;-76
2023/03/12 22:15:32;;;;;;;12.13;2.42;;;;;;;;;;8243918;28;20057;-76
2023/03/12 22:19:32;;;;;;;12.13;2.60;;;;;;;;;;8255264;28;20580;-76
2023/03/12 22:23:35;;;;;;;15.70;3.05;;;;;;;;;;8241904;28;20025;-76
2023/03/12 22:27:35;;;;;;;9.03;2.50;;;;;;;;;;8244607;28;20289;-76
2023/03/12 22:31:35;;;;;;;14.25;2.67;;;;;;;;;;8241542;28;20034;-76
2023/03/12 22:35:42;;;;;;;13.65;2.90;;;;;;;;;;8241690;28;20427;-76
2023/03/12 22:39:42;;;;;;;11.35;2.28;;;;;;;;;;8244237;28;20018;-76
2023/03/12 22:43:42;;;;;;;13.23;2.22;;;;;;;;;;8239612;28;20022;-76
2023/03/12 22:47:43;;;;;;;13.82;2.92;;;;;;;;;;8239511;28;20121;-76
2023/03/12 22:51:43;;;;;;;11.93;2.70;;;;;;;;;;8238760;28;20033;-76
2023/03/12 22:55:43;;;;;;;12.13;2.53;;;;;;;;;;8255469;28;20291;-76
2023/03/12 22:59:45;;;;;;;12.05;3.30;;;;;;;;;;8241348;28;20425;-76
2023/03/12 23:03:46;;;;;;;12.68;2.63;;;;;;;;;;8245597;28;20030;-76
2023/03/12 23:07:46;;;;;;;16.08;2.70;;;;;;;;;;8239847;28;20041;-76
2023/03/12 23:11:46;;;;;;;16.17;2.88;;;;;;;;;;8242360;28;20036;-76
2023/03/12 23:15:47;;;;;;;13.77;3.17;;;;;;;;;;8239430;28;20445;-76
2023/03/12 23:19:47;;;;;;;10.45;2.72;;;;;;;;;;8241075;28;20022;-76
2023/03/12 23:23:48;;;;;;;15.80;3.03;;;;;;;;;;8241504;28;20025;-76
2023/03/12 23:27:48;;;;;;;13.82;2.58;;;;;;;;;;8245518;28;20026;-76
2023/03/12 23:31:49;;;;;;;13.85;2.60;;;;;;;;;;8254615;28;20037;-76
2023/03/12 23:35:53;;;;;;;14.68;2.90;;;;;;;;;;8246620;28;20033;-76
2023/03/12 23:39:53;;;;;;;;;;;;;;;;;;8252914;28;20466;-76
2023/03/12 23:43:54;;;;;;;16.77;2.90;;;;;;;;;;8256757;28;19913;-76
2023/03/12 23:47:55;;;;;;;10.82;2.60;;;;;;;;;;8252795;28;20039;-75
2023/03/12 23:51:55;;;;;;;13.85;3.13;;;;;;;;;;8260815;28;20024;-75
2023/03/12 23:55:56;;;;;;;19.48;3.28;;;;;;;;;;8252615;28;20033;-75
2023/03/12 23:59:56;;;;;;;13.77;2.80;;;;;;;;;;8251914;28;20651;-76
